Time;durP1;ratioP1;P1;durP2;ratioP2;P2;SDS_P1;SDS_P2;PMS_P1;PMS_P2;Temp;Humidity;BMP_temperature;BMP_pressure;BME280_temperature;BME280_humidity;BME280_pressure;Samples;Min_cycle;Max_cycle;Signal;HPM_P1;HPM_P2
2023/12/12 00:02:10;;;;;;;27.67;25.17;;;;;;;;;;4992982;28;20438;-39
2023/12/12 00:04:38;;;;;;;26.90;24.50;;;;;;;;;;4992922;28;20434;-42
2023/12/12 00:07:06;;;;;;;26.90;24.60;;;;;;;;;;4995747;28;21174;-39
2023/12/12 00:09:33;;;;;;;27.77;25.33;;;;;;;;;;5012380;28;20944;-39
2023/12/12 00:12:01;;;;;;;27.13;24.60;;;;;;;;;;5012425;28;20441;-39
2023/12/12 00:14:28;;;;;;;27.97;25.50;;;;;;;;;;5012248;28;20804;-39
2023/12/12 00:16:55;;;;;;;28.90;26.50;;;;;;;;;;5009773;28;20461;-39
2023/12/12 00:19:24;;;;;;;27.77;25.27;;;;;;;;;;4992632;28;20477;-40
2023/12/12 00:21:51;;;;;;;27.67;25.23;;;;;;;;;;4991797;28;20438;-39
2023/12/12 00:24:19;;;;;;;26.70;24.30;;;;;;;;;;4992340;28;20501;-39
2023/12/12 00:26:46;;;;;;;27.73;25.30;;;;;;;;;;4992926;28;20989;-39
2023/12/12 00:29:14;;;;;;;25.70;23.70;;;;;;;;;;5012213;28;20540;-41
2023/12/12 00:31:41;;;;;;;25.77;23.77;;;;;;;;;;5012080;28;20528;-39
2023/12/12 00:34:09;;;;;;;28.03;25.60;;;;;;;;;;5011783;28;20441;-39
2023/12/12 00:36:38;;;;;;;27.17;24.87;;;;;;;;;;5012014;28;20810;-39
2023/12/12 00:39:06;;;;;;;26.33;23.97;;;;;;;;;;4991659;28;20473;-40
2023/12/12 00:41:33;;;;;;;27.23;24.70;;;;;;;;;;4992482;28;20434;-39
2023/12/12 00:44:01;;;;;;;26.07;23.53;;;;;;;;;;4992315;28;20466;-39
2023/12/12 00:46:28;;;;;;;27.20;24.60;;;;;;;;;;4992017;28;20457;-41
2023/12/12 00:48:56;;;;;;;25.50;23.40;;;;;;;;;;5009986;28;20532;-40
2023/12/12 00:51:24;;;;;;;25.50;23.07;;;;;;;;;;5004066;28;20444;-40
2023/12/12 00:53:53;;;;;;;27.17;24.93;;;;;;;;;;5011644;28;20436;-39
2023/12/12 00:56:20;;;;;;;27.33;25.13;;;;;;;;;;5011397;28;20507;-39
2023/12/12 00:58:48;;;;;;;25.80;23.70;;;;;;;;;;4993728;28;20472;-41
2023/12/12 01:01:15;;;;;;;26.10;23.83;;;;;;;;;;4991920;28;20470;-39
2023/12/12 01:03:43;;;;;;;27.40;25.00;;;;;;;;;;4992232;28;20445;-42
2023/12/12 01:06:21;;;;;;;27.37;24.83;;;;;;;;;;4991905;28;20457;-39
2023/12/12 01:08:53;;;;;;;26.57;24.27;;;;;;;;;;5009072;28;20871;-40
2023/12/12 01:11:21;;;;;;;25.90;23.80;;;;;;;;;;5011437;28;20435;-39
2023/12/12 01:13:49;;;;;;;28.33;25.73;;;;;;;;;;5011851;28;20924;-40
2023/12/12 01:16:16;;;;;;;27.13;24.53;;;;;;;;;;5011335;28;20548;-39
2023/12/12 01:18:44;;;;;;;26.27;23.97;;;;;;;;;;4994497;28;20466;-39
2023/12/12 01:21:12;;;;;;;26.03;23.73;;;;;;;;;;4990526;28;20434;-39
2023/12/12 01:23:49;;;;;;;24.40;22.10;;;;;;;;;;4991981;28;20529;-41
2023/12/12 01:26:18;;;;;;;27.87;25.37;;;;;;;;;;4991395;28;20508;-41
2023/12/12 01:28:46;;;;;;;25.90;23.70;;;;;;;;;;5008428;28;20465;-41
2023/12/12 01:31:15;;;;;;;26.80;24.40;;;;;;;;;;5011406;28;20440;-38
2023/12/12 01:33:42;;;;;;;25.93;23.43;;;;;;;;;;5011591;28;20469;-39
2023/12/12 01:36:10;;;;;;;24.97;23.07;;;;;;;;;;5011038;28;20467;-38
2023/12/12 01:38:38;;;;;;;25.83;23.50;;;;;;;;;;4995097;28;20476;-42
2023/12/12 01:41:05;;;;;;;25.30;23.10;;;;;;;;;;4991663;28;20445;-39
2023/12/12 01:43:34;;;;;;;26.90;24.50;;;;;;;;;;4991934;28;20441;-39
2023/12/12 01:46:03;;;;;;;25.87;23.67;;;;;;;;;;4991477;28;20885;-38
2023/12/12 01:48:31;;;;;;;27.80;25.30;;;;;;;;;;5006283;28;20460;-39
2023/12/12 01:50:59;;;;;;;24.07;21.97;;;;;;;;;;5011341;28;20433;-39
2023/12/12 01:53:28;;;;;;;24.13;22.13;;;;;;;;;;5011268;28;20441;-39
2023/12/12 01:55:56;;;;;;;23.87;21.80;;;;;;;;;;5010971;28;20510;-40
2023/12/12 01:58:25;;;;;;;22.40;20.60;;;;;;;;;;4996788;28;20481;-39
2023/12/12 02:00:54;;;;;;;21.50;19.70;;;;;;;;;;4991472;28;20980;-39
2023/12/12 02:03:23;;;;;;;24.47;22.27;;;;;;;;;;4992368;28;20807;-40
2023/12/12 02:05:51;;;;;;;22.60;20.73;;;;;;;;;;4995093;28;20478;-39
2023/12/12 02:08:18;;;;;;;23.33;21.43;;;;;;;;;;5007830;28;20491;-39
2023/12/12 02:10:46;;;;;;;24.83;22.67;;;;;;;;;;5014797;28;21208;-40
2023/12/12 02:13:14;;;;;;;24.37;22.37;;;;;;;;;;5014758;28;20464;-40
2023/12/12 02:15:41;;;;;;;24.23;21.87;;;;;;;;;;5014428;28;20464;-39
2023/12/12 02:18:10;;;;;;;24.33;22.20;;;;;;;;;;5002125;28;20473;-39
2023/12/12 02:20:38;;;;;;;26.60;24.13;;;;;;;;;;4993131;28;20525;-40
2023/12/12 02:23:07;;;;;;;23.97;21.90;;;;;;;;;;4995021;28;20438;-39
2023/12/12 02:25:35;;;;;;;25.07;23.07;;;;;;;;;;4994736;28;20464;-41
2023/12/12 02:28:03;;;;;;;26.27;24.00;;;;;;;;;;5005517;28;20860;-39
2023/12/12 02:30:31;;;;;;;26.40;24.00;;;;;;;;;;5014414;28;20457;-39
2023/12/12 02:32:59;;;;;;;25.47;23.27;;;;;;;;;;5014180;28;20437;-41
2023/12/12 02:35:27;;;;;;;26.77;24.37;;;;;;;;;;5013810;28;20453;-39
2023/12/12 02:37:54;;;;;;;25.53;23.33;;;;;;;;;;5004049;28;20465;-39
2023/12/12 02:40:23;;;;;;;25.23;23.23;;;;;;;;;;4994453;28;20477;-40
2023/12/12 02:42:51;;;;;;;25.87;23.57;;;;;;;;;;4994467;28;20445;-40
2023/12/12 02:45:19;;;;;;;26.87;24.37;;;;;;;;;;4994230;28;20441;-40
2023/12/12 02:47:46;;;;;;;26.23;23.77;;;;;;;;;;5002663;28;20460;-39
2023/12/12 02:50:14;;;;;;;26.17;23.77;;;;;;;;;;5014008;28;20429;-39
2023/12/12 02:52:42;;;;;;;26.23;23.87;;;;;;;;;;5014087;28;20528;-40
2023/12/12 02:55:09;;;;;;;25.57;23.33;;;;;;;;;;5013406;28;20564;-39
2023/12/12 02:57:38;;;;;;;26.43;23.90;;;;;;;;;;5005904;28;20548;-44
2023/12/12 03:00:06;;;;;;;26.87;24.30;;;;;;;;;;4993924;28;20474;-38
2023/12/12 03:02:34;;;;;;;26.50;24.30;;;;;;;;;;4994376;28;21043;-39
2023/12/12 03:05:01;;;;;;;24.33;22.43;;;;;;;;;;4994244;28;20470;-44
2023/12/12 03:07:29;;;;;;;27.33;24.53;;;;;;;;;;4992455;28;20939;-40
2023/12/12 03:09:57;;;;;;;25.07;22.87;;;;;;;;;;5013776;28;20528;-39
2023/12/12 03:12:25;;;;;;;27.97;23.10;;;;;;;;;;5013397;28;20476;-39
2023/12/12 03:14:54;;;;;;;28.97;26.20;;;;;;;;;;5012650;28;20496;-39
2023/12/12 03:17:21;;;;;;;24.37;22.23;;;;;;;;;;5007655;28;20530;-40
2023/12/12 03:19:49;;;;;;;26.47;24.07;;;;;;;;;;4993836;28;20473;-39
2023/12/12 03:22:17;;;;;;;26.43;24.10;;;;;;;;;;4992013;28;20438;-41
2023/12/12 03:24:44;;;;;;;26.20;23.43;;;;;;;;;;4993541;28;20442;-39
2023/12/12 03:27:12;;;;;;;24.10;22.10;;;;;;;;;;4997401;28;20876;-39
2023/12/12 03:29:39;;;;;;;27.67;24.93;;;;;;;;;;5013407;28;21035;-41
2023/12/12 03:32:08;;;;;;;26.07;23.47;;;;;;;;;;5013246;28;20549;-40
2023/12/12 03:34:36;;;;;;;28.80;26.10;;;;;;;;;;5013013;28;20548;-39
2023/12/12 03:37:04;;;;;;;27.33;24.80;;;;;;;;;;5009568;28;20474;-39
2023/12/12 03:39:31;;;;;;;27.10;24.20;;;;;;;;;;4985655;28;20477;-41
2023/12/12 03:41:59;;;;;;;27.47;24.83;;;;;;;;;;4993341;28;20442;-39
2023/12/12 03:44:26;;;;;;;27.63;24.80;;;;;;;;;;4993174;28;20446;-39
2023/12/12 03:46:54;;;;;;;26.70;24.10;;;;;;;;;;4994921;28;20458;-39
2023/12/12 03:49:23;;;;;;;28.67;25.57;;;;;;;;;;5012922;28;20807;-40
2023/12/12 03:51:51;;;;;;;28.07;25.47;;;;;;;;;;5012791;28;20425;-39
2023/12/12 03:54:18;;;;;;;28.70;24.80;;;;;;;;;;5012395;28;20443;-40
2023/12/12 03:56:46;;;;;;;28.17;25.53;;;;;;;;;;5011520;28;20461;-39
2023/12/12 03:59:14;;;;;;;28.90;26.00;;;;;;;;;;4993148;28;20871;-40
2023/12/12 04:01:41;;;;;;;27.87;24.90;;;;;;;;;;4993035;28;20525;-40
2023/12/12 04:04:09;;;;;;;26.83;24.00;;;;;;;;;;4992697;28;21018;-38
2023/12/12 04:06:44;;;;;;;26.83;24.20;;;;;;;;;;4992992;28;20465;-40
2023/12/12 04:09:12;;;;;;;27.70;24.93;;;;;;;;;;4992589;28;20537;-42
2023/12/12 04:11:40;;;;;;;28.80;25.77;;;;;;;;;;4993075;28;20865;-39
2023/12/12 04:14:07;;;;;;;27.47;24.67;;;;;;;;;;4993018;28;20521;-40
2023/12/12 04:16:35;;;;;;;26.87;24.10;;;;;;;;;;4992784;28;20450;-39
2023/12/12 04:19:02;;;;;;;27.03;23.77;;;;;;;;;;5011526;28;20872;-39
2023/12/12 04:21:30;;;;;;;28.33;25.60;;;;;;;;;;5011951;28;20473;-39
2023/12/12 04:23:59;;;;;;;26.27;23.50;;;;;;;;;;5012485;28;20886;-39
2023/12/12 04:26:28;;;;;;;29.17;25.00;;;;;;;;;;5011509;28;20453;-39
2023/12/12 04:28:56;;;;;;;29.53;25.47;;;;;;;;;;5011454;28;20536;-38
2023/12/12 04:31:23;;;;;;;26.03;23.47;;;;;;;;;;5011987;28;20437;-39
2023/12/12 04:33:51;;;;;;;34.73;26.37;;;;;;;;;;5011922;28;20436;-40
2023/12/12 04:36:20;;;;;;;27.80;24.83;;;;;;;;;;5011856;28;20836;-38
2023/12/12 04:38:48;;;;;;;28.13;25.27;;;;;;;;;;5011605;28;20461;-40
2023/12/12 04:41:17;;;;;;;27.60;24.53;;;;;;;;;;5011910;28;20479;-39
2023/12/12 04:43:45;;;;;;;27.70;24.80;;;;;;;;;;5012001;28;20446;-39
2023/12/12 04:46:18;;;;;;;27.27;23.60;;;;;;;;;;5011559;28;20906;-39
2023/12/12 04:48:46;;;;;;;26.50;24.13;;;;;;;;;;5011393;28;20836;-39
2023/12/12 04:51:14;;;;;;;26.57;24.20;;;;;;;;;;5011834;28;20429;-41
2023/12/12 04:53:41;;;;;;;25.60;23.07;;;;;;;;;;5012120;28;20437;-39
2023/12/12 04:56:09;;;;;;;24.60;22.30;;;;;;;;;;5011418;28;20968;-41
2023/12/12 04:58:38;;;;;;;33.53;26.00;;;;;;;;;;4987609;28;20462;-39
2023/12/12 05:01:06;;;;;;;26.77;24.33;;;;;;;;;;4991824;28;21064;-39
2023/12/12 05:03:34;;;;;;;27.20;24.60;;;;;;;;;;4992368;28;20438;-38
2023/12/12 05:06:01;;;;;;;27.03;24.43;;;;;;;;;;4992037;28;20468;-41
2023/12/12 05:08:29;;;;;;;27.13;24.53;;;;;;;;;;4991576;28;20465;-42
2023/12/12 05:10:57;;;;;;;31.43;28.37;;;;;;;;;;4992214;28;20426;-39
2023/12/12 05:13:24;;;;;;;30.00;27.00;;;;;;;;;;4991750;28;21028;-42
2023/12/12 05:15:54;;;;;;;27.67;25.27;;;;;;;;;;4992039;28;20461;-39
2023/12/12 05:18:22;;;;;;;30.70;26.30;;;;;;;;;;4991558;28;20516;-40
2023/12/12 05:20:50;;;;;;;31.00;28.00;;;;;;;;;;4992008;28;20481;-41
2023/12/12 05:23:18;;;;;;;28.43;25.43;;;;;;;;;;4992001;28;20438;-40
2023/12/12 05:25:46;;;;;;;27.90;25.07;;;;;;;;;;4991619;28;20461;-39
2023/12/12 05:28:16;;;;;;;34.83;27.90;;;;;;;;;;4991266;28;20469;-41
2023/12/12 05:30:44;;;;;;;31.70;28.50;;;;;;;;;;4992102;28;20461;-39
2023/12/12 05:33:13;;;;;;;34.33;28.10;;;;;;;;;;4991889;28;20444;-41
2023/12/12 05:35:41;;;;;;;31.10;27.90;;;;;;;;;;4991689;28;20525;-41
2023/12/12 05:38:09;;;;;;;31.97;28.27;;;;;;;;;;4992090;28;20458;-41
2023/12/12 05:40:36;;;;;;;28.43;25.97;;;;;;;;;;4995546;28;20474;-42
2023/12/12 05:43:04;;;;;;;31.47;28.47;;;;;;;;;;4995740;28;20434;-41
2023/12/12 05:45:32;;;;;;;31.07;27.90;;;;;;;;;;4995357;28;20462;-39
2023/12/12 05:48:02;;;;;;;29.70;26.90;;;;;;;;;;4995183;28;20462;-39
2023/12/12 05:50:32;;;;;;;28.80;26.03;;;;;;;;;;4995693;28;20445;-39
2023/12/12 05:53:00;;;;;;;30.53;27.63;;;;;;;;;;4995495;28;20437;-40
2023/12/12 05:55:28;;;;;;;29.37;26.50;;;;;;;;;;4995071;28;20465;-39
2023/12/12 05:57:56;;;;;;;27.53;24.70;;;;;;;;;;4994836;28;20464;-39
2023/12/12 06:00:27;;;;;;;29.23;26.17;;;;;;;;;;4995359;28;20794;-39
2023/12/12 06:02:55;;;;;;;26.23;23.93;;;;;;;;;;4995366;28;20456;-40
2023/12/12 06:05:22;;;;;;;30.60;27.70;;;;;;;;;;4995031;28;20524;-39
2023/12/12 06:07:52;;;;;;;27.10;24.80;;;;;;;;;;4994934;28;20453;-40
2023/12/12 06:10:20;;;;;;;27.00;24.60;;;;;;;;;;4995132;28;20462;-39
2023/12/12 06:12:51;;;;;;;26.40;24.10;;;;;;;;;;4995187;28;20440;-39
2023/12/12 06:15:19;;;;;;;26.60;24.00;;;;;;;;;;4994788;28;20508;-40
2023/12/12 06:17:47;;;;;;;25.67;23.43;;;;;;;;;;4994699;28;20464;-40
2023/12/12 06:20:15;;;;;;;26.23;23.93;;;;;;;;;;4994610;28;20445;-38
2023/12/12 06:22:43;;;;;;;27.73;25.20;;;;;;;;;;4994803;28;20989;-39
2023/12/12 06:25:12;;;;;;;28.60;26.20;;;;;;;;;;4994678;28;20434;-38
2023/12/12 06:27:39;;;;;;;27.87;25.50;;;;;;;;;;4994390;28;21089;-39
2023/12/12 06:30:08;;;;;;;27.33;24.60;;;;;;;;;;4995166;28;20476;-39
2023/12/12 06:32:35;;;;;;;25.80;23.40;;;;;;;;;;4994535;28;20879;-39
2023/12/12 06:35:04;;;;;;;25.80;23.80;;;;;;;;;;4994759;28;20829;-39
2023/12/12 06:37:32;;;;;;;25.13;23.10;;;;;;;;;;4994315;28;20466;-39
2023/12/12 06:40:00;;;;;;;25.47;22.77;;;;;;;;;;4994829;28;20434;-39
2023/12/12 06:42:29;;;;;;;25.53;23.13;;;;;;;;;;4994486;28;20560;-38
2023/12/12 06:44:56;;;;;;;25.23;23.13;;;;;;;;;;4994439;28;20426;-39
2023/12/12 06:47:25;;;;;;;22.50;20.67;;;;;;;;;;4993891;28;20502;-42
2023/12/12 06:49:53;;;;;;;23.30;21.40;;;;;;;;;;4993685;28;20441;-40
2023/12/12 06:52:21;;;;;;;23.27;21.07;;;;;;;;;;4994305;28;20942;-39
2023/12/12 06:54:49;;;;;;;23.17;21.00;;;;;;;;;;4994075;28;20525;-39
2023/12/12 06:57:16;;;;;;;22.63;20.53;;;;;;;;;;4993894;28;20561;-39
2023/12/12 06:59:45;;;;;;;22.40;20.50;;;;;;;;;;4986393;28;20512;-40
2023/12/12 07:02:14;;;;;;;21.80;20.00;;;;;;;;;;4994025;28;20482;-39
2023/12/12 07:04:41;;;;;;;24.23;21.33;;;;;;;;;;4993972;28;20434;-40
2023/12/12 07:07:09;;;;;;;24.33;22.03;;;;;;;;;;4993754;28;20595;-41
2023/12/12 07:09:37;;;;;;;24.50;22.50;;;;;;;;;;4994006;28;20857;-39
2023/12/12 07:12:06;;;;;;;23.33;21.27;;;;;;;;;;4994030;28;20437;-40
2023/12/12 07:14:33;;;;;;;23.57;21.57;;;;;;;;;;4993363;28;20525;-41
2023/12/12 07:17:02;;;;;;;22.10;20.40;;;;;;;;;;4993557;28;20500;-40
2023/12/12 07:19:30;;;;;;;23.33;21.10;;;;;;;;;;4994058;28;20470;-42
2023/12/12 07:21:58;;;;;;;24.13;22.03;;;;;;;;;;4993689;28;20529;-38
2023/12/12 07:24:26;;;;;;;23.07;20.87;;;;;;;;;;4993534;28;21000;-38
2023/12/12 07:26:53;;;;;;;21.93;20.13;;;;;;;;;;4992805;28;20458;-39
2023/12/12 07:29:22;;;;;;;25.03;22.83;;;;;;;;;;4993793;28;20980;-39
2023/12/12 07:31:50;;;;;;;23.83;21.40;;;;;;;;;;4993734;28;20516;-41
2023/12/12 07:34:19;;;;;;;24.03;21.70;;;;;;;;;;4993500;28;20442;-42
2023/12/12 07:36:49;;;;;;;22.70;20.60;;;;;;;;;;4993162;28;20450;-40
2023/12/12 07:39:17;;;;;;;23.87;21.80;;;;;;;;;;4993462;28;20448;-40
2023/12/12 07:41:44;;;;;;;23.67;21.60;;;;;;;;;;4993483;28;20502;-39
2023/12/12 07:44:12;;;;;;;23.43;21.43;;;;;;;;;;4993370;28;20516;-40
2023/12/12 07:46:40;;;;;;;24.93;22.60;;;;;;;;;;4993088;28;20991;-38
2023/12/12 07:49:08;;;;;;;25.10;22.67;;;;;;;;;;5012773;28;20472;-39
2023/12/12 07:51:37;;;;;;;26.97;24.47;;;;;;;;;;5012810;28;20840;-39
2023/12/12 07:54:06;;;;;;;24.80;22.80;;;;;;;;;;5012679;28;20433;-39
2023/12/12 07:56:33;;;;;;;25.20;22.70;;;;;;;;;;5012308;28;20469;-39
2023/12/12 07:59:01;;;;;;;24.70;22.57;;;;;;;;;;4993537;28;20545;-39
2023/12/12 08:01:29;;;;;;;24.80;22.57;;;;;;;;;;4992861;28;20445;-39
2023/12/12 08:03:57;;;;;;;24.63;22.30;;;;;;;;;;4992951;28;20520;-39
2023/12/12 08:06:26;;;;;;;24.27;21.93;;;;;;;;;;4992776;28;20469;-39
2023/12/12 08:08:56;;;;;;;22.97;20.77;;;;;;;;;;5010546;28;20456;-41
2023/12/12 08:11:24;;;;;;;24.77;22.17;;;;;;;;;;5012300;28;20445;-40
2023/12/12 08:13:52;;;;;;;25.70;23.17;;;;;;;;;;5012588;28;20441;-39
2023/12/12 08:16:20;;;;;;;26.00;23.37;;;;;;;;;;5012232;28;20484;-38
2023/12/12 08:18:47;;;;;;;27.17;24.57;;;;;;;;;;4986850;28;20584;-39
2023/12/12 08:21:15;;;;;;;28.80;26.20;;;;;;;;;;4988570;28;20430;-38
2023/12/12 08:23:42;;;;;;;29.93;26.97;;;;;;;;;;4992546;28;20984;-41
2023/12/12 08:26:11;;;;;;;28.20;25.40;;;;;;;;;;4992504;28;20488;-39
2023/12/12 08:28:40;;;;;;;27.07;24.30;;;;;;;;;;5008240;28;20467;-41
2023/12/12 08:31:07;;;;;;;25.70;23.40;;;;;;;;;;5012192;28;20487;-39
2023/12/12 08:33:35;;;;;;;26.10;23.63;;;;;;;;;;5011937;28;20465;-42
2023/12/12 08:36:04;;;;;;;26.07;23.40;;;;;;;;;;5011889;28;20492;-40
2023/12/12 08:38:31;;;;;;;26.60;23.87;;;;;;;;;;4996736;28;20490;-41
2023/12/12 08:40:59;;;;;;;28.77;25.87;;;;;;;;;;4992591;28;20466;-39
2023/12/12 08:43:28;;;;;;;28.33;25.67;;;;;;;;;;4992326;28;20479;-39
2023/12/12 08:45:56;;;;;;;27.77;24.90;;;;;;;;;;4991944;28;20512;-40
2023/12/12 08:48:24;;;;;;;31.97;27.17;;;;;;;;;;5005991;28;20468;-39
2023/12/12 08:50:52;;;;;;;27.90;25.07;;;;;;;;;;5012038;28;20433;-39
2023/12/12 08:53:26;;;;;;;26.10;23.47;;;;;;;;;;5011982;28;20465;-39
2023/12/12 08:55:55;;;;;;;26.70;24.07;;;;;;;;;;5004142;28;20460;-39
2023/12/12 08:58:23;;;;;;;27.93;24.93;;;;;;;;;;4997585;28;20940;-39
2023/12/12 09:00:54;;;;;;;24.40;21.80;;;;;;;;;;4992047;28;20513;-39
2023/12/12 09:03:22;;;;;;;26.37;24.03;;;;;;;;;;4992249;28;20486;-41
2023/12/12 09:05:50;;;;;;;24.30;22.00;;;;;;;;;;4992085;28;20457;-42
2023/12/12 09:08:18;;;;;;;25.57;23.03;;;;;;;;;;5004758;28;20465;-41
2023/12/12 09:10:45;;;;;;;26.93;24.23;;;;;;;;;;5011563;28;20441;-39
2023/12/12 09:13:13;;;;;;;24.27;22.13;;;;;;;;;;5010918;28;20437;-39
2023/12/12 09:15:40;;;;;;;24.27;22.20;;;;;;;;;;5011141;28;20453;-43
2023/12/12 09:18:10;;;;;;;22.77;20.53;;;;;;;;;;4999457;28;20465;-43
2023/12/12 09:20:47;;;;;;;24.73;22.50;;;;;;;;;;4991778;28;20440;-40
2023/12/12 09:23:16;;;;;;;24.13;21.90;;;;;;;;;;4991808;28;20474;-43
2023/12/12 09:25:44;;;;;;;24.50;22.00;;;;;;;;;;4991353;28;20512;-39
2023/12/12 09:28:11;;;;;;;26.43;23.80;;;;;;;;;;5003804;28;20559;-39
2023/12/12 09:30:39;;;;;;;24.97;22.80;;;;;;;;;;5011290;28;20461;-39
2023/12/12 09:33:07;;;;;;;26.13;23.57;;;;;;;;;;5011369;28;20932;-39
2023/12/12 09:35:37;;;;;;;26.37;23.67;;;;;;;;;;5011143;28;20457;-39
2023/12/12 09:38:05;;;;;;;26.63;22.57;;;;;;;;;;4999348;28;20465;-39
2023/12/12 09:40:34;;;;;;;26.50;23.87;;;;;;;;;;4991847;28;20806;-39
2023/12/12 09:43:03;;;;;;;26.83;24.43;;;;;;;;;;4991826;28;20466;-39
2023/12/12 09:45:30;;;;;;;26.97;24.67;;;;;;;;;;4991391;28;20454;-44
2023/12/12 09:47:58;;;;;;;27.20;24.87;;;;;;;;;;5001583;28;20465;-41
2023/12/12 09:50:26;;;;;;;28.50;25.93;;;;;;;;;;5011071;28;20782;-41
2023/12/12 09:52:55;;;;;;;26.70;24.10;;;;;;;;;;5011444;28;20527;-39
2023/12/12 09:55:24;;;;;;;26.90;24.50;;;;;;;;;;5010933;28;20515;-41
2023/12/12 09:57:52;;;;;;;25.80;23.30;;;;;;;;;;5001283;28;20462;-44
2023/12/12 10:00:21;;;;;;;26.43;23.93;;;;;;;;;;4991657;28;20466;-39
2023/12/12 10:02:50;;;;;;;24.20;22.20;;;;;;;;;;4991262;28;20478;-39
2023/12/12 10:05:18;;;;;;;25.63;23.30;;;;;;;;;;4991111;28;20438;-39
2023/12/12 10:07:47;;;;;;;26.13;23.63;;;;;;;;;;4999368;28;20917;-41
2023/12/12 10:10:28;;;;;;;24.73;22.60;;;;;;;;;;5011050;28;20439;-41
2023/12/12 10:12:56;;;;;;;26.73;24.30;;;;;;;;;;5003463;28;20948;-40
2023/12/12 10:15:24;;;;;;;27.40;24.87;;;;;;;;;;5010658;28;20433;-42
2023/12/12 10:17:55;;;;;;;26.40;24.20;;;;;;;;;;5000814;28;20811;-40
2023/12/12 10:20:25;;;;;;;26.17;23.50;;;;;;;;;;4986913;28;20435;-44
2023/12/12 10:22:54;;;;;;;27.20;24.77;;;;;;;;;;4991295;28;20434;-40
2023/12/12 10:25:22;;;;;;;29.37;26.50;;;;;;;;;;4992002;28;20492;-39
2023/12/12 10:27:53;;;;;;;26.07;23.73;;;;;;;;;;5003850;28;20464;-39
2023/12/12 10:30:21;;;;;;;26.50;24.10;;;;;;;;;;5014692;28;20551;-39
2023/12/12 10:32:51;;;;;;;26.53;23.80;;;;;;;;;;5014529;28;20503;-39
2023/12/12 10:35:19;;;;;;;26.00;23.30;;;;;;;;;;5014145;28;20433;-40
2023/12/12 10:37:46;;;;;;;27.17;24.53;;;;;;;;;;5005015;28;20461;-39
2023/12/12 10:40:15;;;;;;;26.77;24.50;;;;;;;;;;4994677;28;20437;-39
2023/12/12 10:42:42;;;;;;;28.10;25.20;;;;;;;;;;4994454;28;20974;-41
2023/12/12 10:45:13;;;;;;;24.90;22.80;;;;;;;;;;4994355;28;20474;-41
2023/12/12 10:47:41;;;;;;;26.53;24.03;;;;;;;;;;5002136;28;21040;-42
2023/12/12 10:50:14;;;;;;;26.07;23.57;;;;;;;;;;5014054;28;20452;-40
2023/12/12 10:52:43;;;;;;;23.20;21.07;;;;;;;;;;5014029;28;20441;-39
2023/12/12 10:55:11;;;;;;;23.97;21.77;;;;;;;;;;5013365;28;20441;-42
2023/12/12 10:57:41;;;;;;;24.73;22.33;;;;;;;;;;5005670;28;20461;-39
2023/12/12 11:00:12;;;;;;;21.13;19.53;;;;;;;;;;4994490;28;20458;-42
2023/12/12 11:02:46;;;;;;;22.63;20.93;;;;;;;;;;4994242;28;20584;-40
2023/12/12 11:05:15;;;;;;;21.13;19.53;;;;;;;;;;4993879;28;20510;-42
2023/12/12 11:07:45;;;;;;;20.73;19.13;;;;;;;;;;5002031;28;20461;-39
2023/12/12 11:10:14;;;;;;;22.07;20.23;;;;;;;;;;5013782;28;20438;-43
2023/12/12 11:12:43;;;;;;;20.97;19.53;;;;;;;;;;5013589;28;20437;-41
2023/12/12 11:15:12;;;;;;;21.40;19.80;;;;;;;;;;5013261;28;20440;-42
2023/12/12 11:17:40;;;;;;;19.60;18.30;;;;;;;;;;5004918;28;20490;-39
2023/12/12 11:20:13;;;;;;;20.30;18.90;;;;;;;;;;4991207;28;20442;-42
2023/12/12 11:22:42;;;;;;;19.50;18.30;;;;;;;;;;4991915;28;20438;-42
2023/12/12 11:25:16;;;;;;;20.00;18.70;;;;;;;;;;4993362;28;20480;-44
2023/12/12 11:27:46;;;;;;;21.37;19.90;;;;;;;;;;5001755;28;20461;-38
2023/12/12 11:30:13;;;;;;;18.93;17.87;;;;;;;;;;5013242;28;20956;-42
2023/12/12 11:32:42;;;;;;;18.00;17.00;;;;;;;;;;5012998;28;20433;-39
2023/12/12 11:35:28;;;;;;;17.90;16.80;;;;;;;;;;5012774;28;20433;-40
2023/12/12 11:37:58;;;;;;;18.73;17.63;;;;;;;;;;5002184;28;20462;-39
2023/12/12 11:40:26;;;;;;;18.50;17.27;;;;;;;;;;4993546;28;20438;-40
2023/12/12 11:42:56;;;;;;;19.87;18.67;;;;;;;;;;4993418;28;20537;-41
2023/12/12 11:45:31;;;;;;;19.40;18.10;;;;;;;;;;4992929;28;20478;-39
2023/12/12 11:47:59;;;;;;;18.17;17.00;;;;;;;;;;5003406;28;20988;-41
2023/12/12 11:50:32;;;;;;;16.57;15.53;;;;;;;;;;5012909;28;20425;-39
2023/12/12 11:53:01;;;;;;;18.17;16.90;;;;;;;;;;5012730;28;20475;-40
2023/12/12 11:55:31;;;;;;;19.97;18.47;;;;;;;;;;5012350;28;20460;-39
2023/12/12 11:58:02;;;;;;;23.40;21.50;;;;;;;;;;5001918;28;20461;-42
2023/12/12 12:00:34;;;;;;;24.43;22.33;;;;;;;;;;4993051;28;20858;-41
2023/12/12 12:03:02;;;;;;;23.57;21.70;;;;;;;;;;4985467;28;20438;-47
2023/12/12 12:05:29;;;;;;;26.30;23.90;;;;;;;;;;4992845;28;20535;-40
2023/12/12 12:08:00;;;;;;;25.20;23.10;;;;;;;;;;5002786;28;20465;-40
2023/12/12 12:10:28;;;;;;;26.20;23.70;;;;;;;;;;5012685;28;20437;-39
2023/12/12 12:12:56;;;;;;;25.40;23.10;;;;;;;;;;5012407;28;20460;-39
2023/12/12 12:15:24;;;;;;;27.23;25.03;;;;;;;;;;5012266;28;20472;-44
2023/12/12 12:17:52;;;;;;;26.80;24.60;;;;;;;;;;5002194;28;20870;-42
2023/12/12 12:20:20;;;;;;;26.70;24.30;;;;;;;;;;4988389;28;20439;-39
2023/12/12 12:22:48;;;;;;;24.83;22.83;;;;;;;;;;4990898;28;20493;-40
2023/12/12 12:25:25;;;;;;;24.77;22.53;;;;;;;;;;4992526;28;20580;-39
2023/12/12 12:27:54;;;;;;;23.10;21.00;;;;;;;;;;5002098;28;20536;-41
2023/12/12 12:30:24;;;;;;;24.00;22.10;;;;;;;;;;5012366;28;20459;-39
2023/12/12 12:33:04;;;;;;;25.10;23.13;;;;;;;;;;5012067;28;20468;-42
2023/12/12 12:35:32;;;;;;;24.37;22.47;;;;;;;;;;5012054;28;20453;-42
2023/12/12 12:38:00;;;;;;;22.73;21.00;;;;;;;;;;5000972;28;20458;-39
2023/12/12 12:40:38;;;;;;;21.03;19.50;;;;;;;;;;4992317;28;20618;-41
2023/12/12 12:43:17;;;;;;;22.23;20.40;;;;;;;;;;4992545;28;20867;-39
2023/12/12 12:45:45;;;;;;;24.27;22.07;;;;;;;;;;4991720;28;20489;-40
2023/12/12 12:48:12;;;;;;;22.83;20.87;;;;;;;;;;5003620;28;20557;-39
2023/12/12 12:50:41;;;;;;;21.97;20.17;;;;;;;;;;5011889;28;20812;-39
2023/12/12 12:53:09;;;;;;;21.70;20.10;;;;;;;;;;5011934;28;20461;-39
2023/12/12 12:55:40;;;;;;;22.40;20.57;;;;;;;;;;5011472;28;20527;-42
2023/12/12 12:58:08;;;;;;;24.03;22.13;;;;;;;;;;4999629;28;20458;-41
2023/12/12 13:00:36;;;;;;;23.50;21.50;;;;;;;;;;4992062;28;21004;-39
2023/12/12 13:03:04;;;;;;;23.73;21.80;;;;;;;;;;4984091;28;20497;-41
2023/12/12 13:05:32;;;;;;;25.67;23.57;;;;;;;;;;4991870;28;20510;-41
2023/12/12 13:07:59;;;;;;;23.90;21.70;;;;;;;;;;5002198;28;20471;-40
2023/12/12 13:10:27;;;;;;;24.00;21.93;;;;;;;;;;5011735;28;20441;-41
2023/12/12 13:13:14;;;;;;;23.60;21.90;;;;;;;;;;5005070;28;20441;-39
2023/12/12 13:15:42;;;;;;;24.27;22.30;;;;;;;;;;5011009;28;20489;-39
2023/12/12 13:18:09;;;;;;;25.17;22.97;;;;;;;;;;4999329;28;20469;-39
2023/12/12 13:20:37;;;;;;;23.63;21.73;;;;;;;;;;4985340;28;20439;-39
2023/12/12 13:23:05;;;;;;;25.33;23.33;;;;;;;;;;4983908;28;20450;-40
2023/12/12 13:25:33;;;;;;;24.30;22.30;;;;;;;;;;4991827;28;20878;-41
2023/12/12 13:28:00;;;;;;;23.80;21.63;;;;;;;;;;5002251;28;20484;-39
2023/12/12 13:30:29;;;;;;;22.83;21.23;;;;;;;;;;5011547;28;20451;-40
2023/12/12 13:32:57;;;;;;;20.90;19.37;;;;;;;;;;5011240;28;20437;-39
2023/12/12 13:35:24;;;;;;;23.00;21.40;;;;;;;;;;5011154;28;20925;-39
2023/12/12 13:38:04;;;;;;;22.30;20.63;;;;;;;;;;4999803;28;20462;-39
2023/12/12 13:40:32;;;;;;;21.10;19.80;;;;;;;;;;4991892;28;20437;-39
2023/12/12 13:43:00;;;;;;;22.10;20.50;;;;;;;;;;4991648;28;20525;-39
2023/12/12 13:45:29;;;;;;;23.03;21.40;;;;;;;;;;4991483;28;20486;-39
2023/12/12 13:47:57;;;;;;;24.43;22.37;;;;;;;;;;5001427;28;20484;-40
2023/12/12 13:50:24;;;;;;;22.07;20.43;;;;;;;;;;5011125;28;20491;-42
2023/12/12 13:52:52;;;;;;;21.50;19.90;;;;;;;;;;5011203;28;20443;-40
2023/12/12 13:55:21;;;;;;;22.27;20.27;;;;;;;;;;5011012;28;20527;-40
2023/12/12 13:57:49;;;;;;;22.33;20.73;;;;;;;;;;5001738;28;20500;-39
2023/12/12 14:00:17;;;;;;;23.07;21.53;;;;;;;;;;4993721;28;20938;-39
2023/12/12 14:02:47;;;;;;;22.27;20.83;;;;;;;;;;4995067;28;20810;-41
2023/12/12 14:05:14;;;;;;;21.83;20.33;;;;;;;;;;4995235;28;20473;-40
2023/12/12 14:07:42;;;;;;;21.57;20.03;;;;;;;;;;5003211;28;20461;-39
2023/12/12 14:10:10;;;;;;;22.07;20.37;;;;;;;;;;5014888;28;20433;-40
2023/12/12 14:12:38;;;;;;;20.60;19.00;;;;;;;;;;5014769;28;20441;-39
2023/12/12 14:15:07;;;;;;;21.57;20.10;;;;;;;;;;5014352;28;20432;-41
2023/12/12 14:17:34;;;;;;;20.47;19.20;;;;;;;;;;5007122;28;20473;-39
2023/12/12 14:20:04;;;;;;;19.13;17.93;;;;;;;;;;4993049;28;20524;-39
2023/12/12 14:22:32;;;;;;;21.53;20.13;;;;;;;;;;4990263;28;20438;-40
2023/12/12 14:25:00;;;;;;;20.37;19.00;;;;;;;;;;4994508;28;20525;-40